TimeEST,TemperatureF,Dew PointF,Humidity,Sea Level PressureIn,VisibilityMPH,Wind Direction,Wind SpeedMPH,Gust SpeedMPH,PrecipitationIn,Events,Conditions,WindDirDegrees,DateUTC
12:15 AM,-5.8,-7.6,92,29.90,10.0,Calm,Calm,-,N/A,,Overcast,0,2013-02-06 05:15:00
12:35 AM,-4.0,-11.2,71,29.90,10.0,Calm,Calm,-,N/A,,Overcast,0,2013-02-06 05:35:00
12:55 AM,-2.2,-5.8,85,29.90,10.0,Calm,Calm,-,N/A,,Overcast,0,2013-02-06 05:55:00
1:15 AM,-0.4,-2.2,92,29.90,10.0,Calm,Calm,-,N/A,,Overcast,0,2013-02-06 06:15:00
1:35 AM,1.4,-7.6,66,29.90,10.0,Calm,Calm,-,N/A,,Overcast,0,2013-02-06 06:35:00
1:55 AM,1.4,-7.6,66,29.89,10.0,Calm,Calm,-,N/A,,Overcast,0,2013-02-06 06:55:00
2:15 AM,1.4,-5.8,72,29.88,10.0,Calm,Calm,-,N/A,,Overcast,0,2013-02-06 07:15:00
2:55 AM,3.2,-2.2,78,29.88,10.0,Calm,Calm,-,N/A,,Overcast,0,2013-02-06 07:55:00
3:35 AM,3.2,-5.8,66,29.87,10.0,Calm,Calm,-,N/A,,Overcast,0,2013-02-06 08:35:00
3:55 AM,5.0,-5.8,61,29.87,10.0,Calm,Calm,-,N/A,,Overcast,0,2013-02-06 08:55:00
4:15 AM,5.0,-4.0,66,29.86,10.0,Calm,Calm,-,N/A,,Mostly Cloudy,0,2013-02-06 09:15:00
4:35 AM,5.0,-5.8,61,29.86,10.0,Calm,Calm,-,N/A,,Overcast,0,2013-02-06 09:35:00
4:55 AM,5.0,-5.8,61,29.86,10.0,SE,4.6,-,N/A,,Overcast,140,2013-02-06 09:55:00
5:15 AM,6.8,-4.0,61,29.86,10.0,SE,3.5,-,N/A,,Overcast,130,2013-02-06 10:15:00
5:35 AM,6.8,-4.0,61,29.86,10.0,Calm,Calm,-,N/A,,Overcast,0,2013-02-06 10:35:00
5:55 AM,6.8,-2.2,67,29.86,10.0,SE,3.5,-,N/A,,Overcast,140,2013-02-06 10:55:00
6:15 AM,6.8,-2.2,67,29.86,10.0,SSE,8.1,-,N/A,,Overcast,160,2013-02-06 11:15:00
6:35 AM,6.8,-4.0,61,29.86,10.0,SSE,9.2,-,N/A,,Overcast,160,2013-02-06 11:35:00
6:55 AM,6.8,-4.0,61,29.86,10.0,SSE,6.9,-,N/A,,Overcast,150,2013-02-06 11:55:00
7:15 AM,6.8,-2.2,67,29.86,10.0,SSE,8.1,-,N/A,,Overcast,150,2013-02-06 12:15:00
7:35 AM,6.8,-2.2,67,29.87,10.0,SSE,5.8,-,N/A,,Overcast,160,2013-02-06 12:35:00
7:55 AM,8.6,-2.2,62,29.87,10.0,SE,8.1,-,N/A,,Overcast,140,2013-02-06 12:55:00
8:15 AM,8.6,-2.2,62,29.86,10.0,SSE,8.1,16.1,N/A,,Overcast,150,2013-02-06 13:15:00
8:35 AM,8.6,-2.2,62,29.86,10.0,SE,10.4,16.1,N/A,,Overcast,140,2013-02-06 13:35:00
8:55 AM,8.6,-0.4,67,29.85,9.0,SSE,10.4,-,N/A,,Overcast,150,2013-02-06 13:55:00
9:15 AM,10.4,-0.4,62,29.85,9.0,SSE,10.4,-,N/A,,Overcast,150,2013-02-06 14:15:00
9:35 AM,10.4,-0.4,62,29.85,8.0,SE,10.4,-,N/A,,Overcast,140,2013-02-06 14:35:00
9:55 AM,10.4,1.4,67,29.84,5.0,SE,9.2,16.1,N/A,,Overcast,140,2013-02-06 14:55:00
10:15 AM,10.4,1.4,67,29.83,8.0,SE,9.2,-,N/A,,Overcast,140,2013-02-06 15:15:00
10:35 AM,12.2,3.2,67,29.82,7.0,SE,10.4,16.1,N/A,,Overcast,140,2013-02-06 15:35:00
10:55 AM,12.2,3.2,67,29.81,8.0,SSE,12.7,-,N/A,,Overcast,160,2013-02-06 15:55:00
11:15 AM,14.0,3.2,62,29.80,10.0,SSE,10.4,-,N/A,,Overcast,150,2013-02-06 16:15:00
11:55 AM,15.8,6.8,68,29.78,9.0,SSE,11.5,-,N/A,,Overcast,150,2013-02-06 16:55:00
12:15 PM,15.8,8.6,73,29.77,3.0,SE,11.5,17.3,N/A,,Overcast,140,2013-02-06 17:15:00
12:35 PM,15.8,10.4,79,29.76,4.0,South,13.8,-,N/A,,Overcast,170,2013-02-06 17:35:00
12:55 PM,17.6,10.4,73,29.76,2.5,SSE,13.8,18.4,N/A,,Overcast,160,2013-02-06 17:55:00
1:15 PM,17.6,12.2,79,29.76,5.0,South,11.5,17.3,N/A,,Overcast,180,2013-02-06 18:15:00
1:35 PM,19.4,12.2,74,29.76,10.0,South,11.5,-,N/A,,Overcast,170,2013-02-06 18:35:00
2:15 PM,19.4,12.2,74,29.75,10.0,SSE,9.2,-,N/A,,Overcast,160,2013-02-06 19:15:00
2:35 PM,21.2,14.0,74,29.75,10.0,South,5.8,-,N/A,,Overcast,180,2013-02-06 19:35:00
2:55 PM,21.2,14.0,74,29.76,7.0,SSW,8.1,-,N/A,,Overcast,210,2013-02-06 19:55:00
3:35 PM,21.2,15.8,80,29.77,2.5,SW,10.4,-,N/A,,Overcast,220,2013-02-06 20:35:00
3:55 PM,21.2,15.8,80,29.78,7.0,WSW,9.2,-,N/A,,Mostly Cloudy,250,2013-02-06 20:55:00
4:15 PM,21.2,10.4,63,29.79,10.0,WSW,13.8,19.6,N/A,,Scattered Clouds,250,2013-02-06 21:15:00
4:35 PM,21.2,6.8,54,29.81,10.0,West,17.3,23.0,N/A,,Clear,260,2013-02-06 21:35:00
4:55 PM,19.4,5.0,54,29.82,10.0,WSW,9.2,19.6,N/A,,Clear,250,2013-02-06 21:55:00
5:15 PM,19.4,1.4,46,29.83,10.0,WSW,13.8,23.0,N/A,,Clear,250,2013-02-06 22:15:00
5:35 PM,17.6,1.4,49,29.84,10.0,WSW,15.0,19.6,N/A,,Clear,240,2013-02-06 22:35:00
6:15 PM,15.8,3.2,58,29.87,8.0,West,16.1,23.0,N/A,,Clear,260,2013-02-06 23:15:00
6:35 PM,15.8,1.4,53,29.88,10.0,WSW,11.5,20.7,N/A,,Clear,250,2013-02-06 23:35:00
6:55 PM,15.8,1.4,53,29.89,10.0,WSW,10.4,18.4,N/A,,Clear,250,2013-02-06 23:55:00
7:15 PM,14.0,-0.4,53,29.91,10.0,WSW,9.2,-,N/A,,Partly Cloudy,250,2013-02-07 00:15:00
7:35 PM,14.0,-0.4,53,29.92,10.0,West,8.1,-,N/A,,Clear,270,2013-02-07 00:35:00
7:55 PM,12.2,-0.4,57,29.93,10.0,West,9.2,-,N/A,,Scattered Clouds,280,2013-02-07 00:55:00
8:15 PM,12.2,1.4,62,29.95,7.0,NNW,16.1,20.7,N/A,,Mostly Cloudy,330,2013-02-07 01:15:00
8:35 PM,10.4,1.4,67,29.97,7.0,NNW,17.3,24.2,N/A,,Overcast,330,2013-02-07 01:35:00
8:55 PM,8.6,1.4,73,29.98,4.0,NNW,17.3,24.2,N/A,,Overcast,330,2013-02-07 01:55:00
9:15 PM,8.6,-2.2,62,29.99,10.0,NNW,16.1,-,N/A,,Overcast,330,2013-02-07 02:15:00
9:35 PM,6.8,-5.8,56,30.00,10.0,NNW,15.0,24.2,N/A,,Mostly Cloudy,330,2013-02-07 02:35:00
9:55 PM,6.8,-5.8,56,30.01,10.0,NNW,12.7,-,N/A,,Partly Cloudy,330,2013-02-07 02:55:00
10:35 PM,3.2,-5.8,66,30.04,10.0,NW,9.2,-,N/A,,Clear,320,2013-02-07 03:35:00
10:55 PM,3.2,-5.8,66,30.05,10.0,NW,9.2,-,N/A,,Clear,310,2013-02-07 03:55:00
11:15 PM,3.2,-7.6,61,30.06,10.0,NW,11.5,16.1,N/A,,Clear,320,2013-02-07 04:15:00
11:35 PM,1.4,-7.6,66,30.07,10.0,NW,9.2,-,N/A,,Clear,310,2013-02-07 04:35:00
11:55 PM,1.4,-7.6,66,30.08,10.0,NW,9.2,-,N/A,,Clear,310,2013-02-07 04:55:00